Time;durP1;ratioP1;P1;durP2;ratioP2;P2;SDS_P1;SDS_P2;PMS_P1;PMS_P2;Temp;Humidity;BMP_temperature;BMP_pressure;BME280_temperature;BME280_humidity;BME280_pressure;Samples;Min_cycle;Max_cycle;Signal;HPM_P1;HPM_P2
2021/06/27 00:00:25;;;;;;;9.13;7.55;;;;;;;;;;6265566;28;20043;-81
2021/06/27 00:03:26;;;;;;;8.65;6.90;;;;;;;;;;6267174;28;20067;-79
2021/06/27 00:06:28;;;;;;;11.05;8.18;;;;;;;;;;6291440;28;20120;-80
2021/06/27 00:09:30;;;;;;;9.50;8.23;;;;;;;;;;6274110;28;20067;-80
2021/06/27 00:12:31;;;;;;;10.15;7.53;;;;;;;;;;6290317;28;20119;-81
2021/06/27 00:15:36;;;;;;;10.70;7.82;;;;;;;;;;6291492;28;20509;-80
2021/06/27 00:18:38;;;;;;;9.95;7.85;;;;;;;;;;6272394;28;20395;-79
2021/06/27 00:21:40;;;;;;;9.77;7.97;;;;;;;;;;6265942;28;20036;-81
2021/06/27 00:24:43;;;;;;;12.23;8.30;;;;;;;;;;6266913;28;20048;-81
2021/06/27 00:27:47;;;;;;;8.98;7.43;;;;;;;;;;6265819;28;20395;-79
2021/06/27 00:30:51;;;;;;;10.98;7.95;;;;;;;;;;6263638;28;20041;-81
2021/06/27 00:33:53;;;;;;;9.10;7.38;;;;;;;;;;6272507;28;20043;-81
2021/06/27 00:36:54;;;;;;;11.70;8.07;;;;;;;;;;6291294;28;20043;-82
2021/06/27 00:39:56;;;;;;;10.27;7.75;;;;;;;;;;6291672;28;20742;-80
2021/06/27 00:42:58;;;;;;;12.52;8.23;;;;;;;;;;6269403;28;20517;-81
2021/06/27 00:46:00;;;;;;;10.02;7.88;;;;;;;;;;6270573;28;20538;-81
2021/06/27 00:49:02;;;;;;;11.02;7.68;;;;;;;;;;6292714;28;20060;-81
2021/06/27 00:52:04;;;;;;;8.75;7.55;;;;;;;;;;6306843;28;20056;-82
2021/06/27 00:55:06;;;;;;;10.95;7.85;;;;;;;;;;6316814;28;20119;-79
2021/06/27 00:58:09;;;;;;;10.15;7.75;;;;;;;;;;6292561;28;20049;-81
2021/06/27 01:01:10;;;;;;;9.47;8.17;;;;;;;;;;6288824;28;20042;-81
2021/06/27 01:04:12;;;;;;;10.70;7.88;;;;;;;;;;6273293;28;20055;-82
2021/06/27 01:07:14;;;;;;;11.00;8.05;;;;;;;;;;6308163;28;20173;-81
2021/06/27 01:10:16;;;;;;;10.45;7.95;;;;;;;;;;6315812;28;20162;-81
2021/06/27 01:13:21;;;;;;;11.75;9.13;;;;;;;;;;6291565;28;20040;-82
2021/06/27 01:16:22;;;;;;;11.02;8.98;;;;;;;;;;6291035;28;20525;-81
2021/06/27 01:19:30;;;;;;;9.70;7.93;;;;;;;;;;6290537;28;20409;-81
2021/06/27 01:22:32;;;;;;;10.07;7.90;;;;;;;;;;6247353;28;20045;-81
2021/06/27 01:25:36;;;;;;;11.57;8.43;;;;;;;;;;6250580;28;20051;-81
2021/06/27 01:28:37;;;;;;;13.00;8.48;;;;;;;;;;6315476;28;20051;-80
2021/06/27 01:31:39;;;;;;;10.23;8.35;;;;;;;;;;6315274;28;20131;-81
2021/06/27 01:34:43;;;;;;;11.30;8.60;;;;;;;;;;6314952;28;20036;-81
2021/06/27 01:37:46;;;;;;;12.05;8.90;;;;;;;;;;6282261;28;20136;-82
2021/06/27 01:40:48;;;;;;;11.02;8.93;;;;;;;;;;6288689;28;20123;-81
2021/06/27 01:43:49;;;;;;;13.23;8.60;;;;;;;;;;6272474;28;20040;-79
2021/06/27 01:46:54;;;;;;;11.85;8.82;;;;;;;;;;6290323;28;20516;-81
2021/06/27 01:49:56;;;;;;;10.48;7.85;;;;;;;;;;6289571;28;20049;-81
2021/06/27 01:53:00;;;;;;;10.45;8.52;;;;;;;;;;6288869;28;20047;-81
2021/06/27 01:56:06;;;;;;;13.57;9.30;;;;;;;;;;6289531;28;20044;-81
2021/06/27 01:59:09;;;;;;;10.50;8.10;;;;;;;;;;6272436;28;20092;-82
2021/06/27 02:02:10;;;;;;;10.57;8.27;;;;;;;;;;6284061;28;20045;-81
2021/06/27 02:05:12;;;;;;;11.20;8.55;;;;;;;;;;6272732;28;20063;-82
2021/06/27 02:08:14;;;;;;;12.50;8.70;;;;;;;;;;6290190;28;20040;-80
2021/06/27 02:11:19;;;;;;;11.20;8.35;;;;;;;;;;6296308;28;20036;-80
2021/06/27 02:14:20;;;;;;;10.75;8.20;;;;;;;;;;6321239;28;20032;-81
2021/06/27 02:17:22;;;;;;;13.10;8.63;;;;;;;;;;6303137;28;20040;-82
2021/06/27 02:20:26;;;;;;;10.48;8.48;;;;;;;;;;6319381;28;20040;-80
2021/06/27 02:23:28;;;;;;;12.48;8.80;;;;;;;;;;6321010;28;20048;-81
2021/06/27 02:26:30;;;;;;;11.57;8.75;;;;;;;;;;6310704;28;20053;-81
2021/06/27 02:29:31;;;;;;;12.00;8.60;;;;;;;;;;6260763;28;20044;-81
2021/06/27 02:32:33;;;;;;;12.48;9.13;;;;;;;;;;6294105;28;20054;-82
2021/06/27 02:35:35;;;;;;;11.73;8.90;;;;;;;;;;6294035;28;20047;-81
2021/06/27 02:38:37;;;;;;;12.02;8.90;;;;;;;;;;6276768;28;20127;-81
2021/06/27 02:41:39;;;;;;;10.45;8.23;;;;;;;;;;6304152;28;20040;-82
2021/06/27 02:44:41;;;;;;;11.10;8.75;;;;;;;;;;6319407;28;20050;-82
2021/06/27 02:47:43;;;;;;;10.88;8.65;;;;;;;;;;6297878;28;20048;-81
2021/06/27 02:50:44;;;;;;;12.80;9.00;;;;;;;;;;6291500;28;20071;-81
2021/06/27 02:53:46;;;;;;;12.98;8.88;;;;;;;;;;6291732;28;20170;-82
2021/06/27 02:56:48;;;;;;;11.85;8.48;;;;;;;;;;6291367;28;20044;-82
2021/06/27 02:59:49;;;;;;;10.55;8.48;;;;;;;;;;6273954;28;20413;-82
2021/06/27 03:02:51;;;;;;;11.30;9.27;;;;;;;;;;6291351;28;20044;-82
2021/06/27 03:05:53;;;;;;;13.25;8.52;;;;;;;;;;6255567;28;20138;-81
2021/06/27 03:08:54;;;;;;;10.38;8.70;;;;;;;;;;6267521;28;20041;-81
2021/06/27 03:11:56;;;;;;;13.65;9.40;;;;;;;;;;6304265;28;20040;-81
2021/06/27 03:14:58;;;;;;;10.88;8.57;;;;;;;;;;6299992;28;20044;-81
2021/06/27 03:17:59;;;;;;;11.63;9.05;;;;;;;;;;6300770;28;20505;-83
2021/06/27 03:21:01;;;;;;;13.38;9.63;;;;;;;;;;6311814;28;20044;-83
2021/06/27 03:24:03;;;;;;;15.02;9.88;;;;;;;;;;6275514;28;20041;-82
2021/06/27 03:27:05;;;;;;;13.20;9.73;;;;;;;;;;6304913;28;20050;-79
2021/06/27 03:30:07;;;;;;;12.68;9.13;;;;;;;;;;6315218;28;20036;-80
2021/06/27 03:33:10;;;;;;;12.23;8.73;;;;;;;;;;6315142;28;20185;-80
2021/06/27 03:36:11;;;;;;;12.03;8.43;;;;;;;;;;6300899;28;20041;-81
2021/06/27 03:39:15;;;;;;;11.30;8.50;;;;;;;;;;6288780;28;20989;-80
2021/06/27 03:42:17;;;;;;;11.27;8.75;;;;;;;;;;6255789;28;20836;-82
2021/06/27 03:45:19;;;;;;;11.35;8.82;;;;;;;;;;6248476;28;20142;-82
2021/06/27 03:48:20;;;;;;;11.85;9.25;;;;;;;;;;6250761;28;20160;-82
2021/06/27 03:51:22;;;;;;;11.68;8.25;;;;;;;;;;6285524;28;20512;-81
2021/06/27 03:54:24;;;;;;;10.35;7.95;;;;;;;;;;6258204;28;20052;-82
2021/06/27 03:57:25;;;;;;;10.77;8.27;;;;;;;;;;6310100;28;20048;-83
2021/06/27 04:00:27;;;;;;;10.75;7.90;;;;;;;;;;6281648;28;20051;-83
2021/06/27 04:03:28;;;;;;;10.93;8.25;;;;;;;;;;6287912;28;20162;-83
2021/06/27 04:06:30;;;;;;;13.13;8.85;;;;;;;;;;6293243;28;20177;-83
2021/06/27 04:09:32;;;;;;;12.48;8.60;;;;;;;;;;6280643;28;20048;-83
2021/06/27 04:12:34;;;;;;;13.05;8.80;;;;;;;;;;6292259;28;20051;-82
2021/06/27 04:15:35;;;;;;;14.50;9.65;;;;;;;;;;6280428;28;20036;-82
2021/06/27 04:18:37;;;;;;;14.98;9.40;;;;;;;;;;6315493;28;20518;-83
2021/06/27 04:21:39;;;;;;;13.82;9.75;;;;;;;;;;6299031;28;20717;-81
2021/06/27 04:24:41;;;;;;;13.27;9.98;;;;;;;;;;6316850;28;20492;-82
2021/06/27 04:27:42;;;;;;;13.77;9.90;;;;;;;;;;6292921;28;20040;-82
2021/06/27 04:30:44;;;;;;;13.15;10.00;;;;;;;;;;6282709;28;20058;-82
2021/06/27 04:33:48;;;;;;;11.82;8.60;;;;;;;;;;6269821;28;20044;-82
2021/06/27 04:36:50;;;;;;;11.65;8.60;;;;;;;;;;6290624;28;20033;-83
2021/06/27 04:39:52;;;;;;;12.07;8.85;;;;;;;;;;6298545;28;20657;-82
2021/06/27 04:42:53;;;;;;;10.38;8.77;;;;;;;;;;6282655;28;20047;-82
2021/06/27 04:45:55;;;;;;;12.55;9.15;;;;;;;;;;6250890;28;20052;-82
2021/06/27 04:48:57;;;;;;;13.65;9.85;;;;;;;;;;6308229;28;20097;-80
2021/06/27 04:51:59;;;;;;;11.40;8.77;;;;;;;;;;6259051;28;20045;-81
2021/06/27 04:55:05;;;;;;;12.90;9.85;;;;;;;;;;6239463;28;20077;-82
2021/06/27 04:58:14;;;;;;;13.50;10.15;;;;;;;;;;6265497;27;21158;-80
2021/06/27 05:01:15;;;;;;;12.07;9.55;;;;;;;;;;6259061;28;20041;-81
2021/06/27 05:04:17;;;;;;;11.18;9.05;;;;;;;;;;6259158;28;20049;-80
2021/06/27 05:07:18;;;;;;;12.30;9.50;;;;;;;;;;6212385;28;20042;-80
2021/06/27 05:10:20;;;;;;;12.68;8.95;;;;;;;;;;6222450;28;20107;-80
2021/06/27 05:13:22;;;;;;;11.75;9.20;;;;;;;;;;6212309;28;20042;-81
2021/06/27 05:16:23;;;;;;;14.13;10.20;;;;;;;;;;6211905;28;20085;-79
2021/06/27 05:19:26;;;;;;;12.63;9.88;;;;;;;;;;6210381;28;20419;-79
2021/06/27 05:22:27;;;;;;;12.40;9.45;;;;;;;;;;6212405;28;20045;-79
2021/06/27 05:25:29;;;;;;;13.68;10.27;;;;;;;;;;6210333;28;20092;-80
2021/06/27 05:28:30;;;;;;;12.32;10.20;;;;;;;;;;6236283;28;20053;-80
2021/06/27 05:31:33;;;;;;;13.68;10.48;;;;;;;;;;6233329;28;20041;-81
2021/06/27 05:34:35;;;;;;;13.02;10.10;;;;;;;;;;6235537;28;20048;-80
2021/06/27 05:37:36;;;;;;;13.77;9.93;;;;;;;;;;6234321;28;20041;-81
2021/06/27 05:40:39;;;;;;;12.32;9.73;;;;;;;;;;6232694;28;20076;-81
2021/06/27 05:43:40;;;;;;;14.65;10.32;;;;;;;;;;6227499;28;20192;-81
2021/06/27 05:46:42;;;;;;;11.60;9.45;;;;;;;;;;6225489;28;20037;-82
2021/06/27 05:49:44;;;;;;;12.52;9.45;;;;;;;;;;6229298;28;20077;-81
2021/06/27 05:52:46;;;;;;;13.30;10.55;;;;;;;;;;6205249;28;20038;-81
2021/06/27 05:55:47;;;;;;;11.90;9.65;;;;;;;;;;6226323;28;20046;-82
2021/06/27 05:58:49;;;;;;;12.52;9.80;;;;;;;;;;6231944;28;20038;-81
2021/06/27 06:01:50;;;;;;;13.40;10.18;;;;;;;;;;6229016;28;20495;-80
2021/06/27 06:04:52;;;;;;;13.25;10.20;;;;;;;;;;6207330;28;20046;-81
2021/06/27 06:07:54;;;;;;;11.07;9.05;;;;;;;;;;6224483;28;20107;-80
2021/06/27 06:10:55;;;;;;;13.05;10.48;;;;;;;;;;6214425;28;20403;-80
2021/06/27 06:13:57;;;;;;;12.68;9.50;;;;;;;;;;6207903;28;20519;-80
2021/06/27 06:16:58;;;;;;;13.23;9.73;;;;;;;;;;6210670;28;20045;-80
2021/06/27 06:20:00;;;;;;;10.40;9.25;;;;;;;;;;6193470;28;20049;-81
2021/06/27 06:23:02;;;;;;;11.55;8.80;;;;;;;;;;6170313;28;20057;-82
2021/06/27 06:26:03;;;;;;;11.93;9.00;;;;;;;;;;6186680;28;20042;-81
2021/06/27 06:29:05;;;;;;;12.70;9.45;;;;;;;;;;6192984;28;20045;-83
2021/06/27 06:32:07;;;;;;;13.32;8.98;;;;;;;;;;6211772;28;20180;-82
2021/06/27 06:35:09;;;;;;;11.50;8.65;;;;;;;;;;6204054;28;20201;-80
2021/06/27 06:38:11;;;;;;;10.17;8.33;;;;;;;;;;6193013;28;20070;-83
2021/06/27 06:41:12;;;;;;;12.63;8.57;;;;;;;;;;6190561;28;20038;-82
2021/06/27 06:44:14;;;;;;;11.40;8.75;;;;;;;;;;6213428;28;20056;-83
2021/06/27 06:47:16;;;;;;;12.55;8.60;;;;;;;;;;6216437;28;20104;-83
2021/06/27 06:50:17;;;;;;;9.43;7.70;;;;;;;;;;6193099;28;20663;-82
2021/06/27 06:53:19;;;;;;;10.57;7.88;;;;;;;;;;6192693;28;20042;-81
2021/06/27 06:56:21;;;;;;;8.50;7.05;;;;;;;;;;6184463;28;20085;-84
2021/06/27 06:59:22;;;;;;;8.77;7.03;;;;;;;;;;6174482;28;20075;-82
2021/06/27 07:02:24;;;;;;;8.68;7.22;;;;;;;;;;6193346;28;20042;-81
2021/06/27 07:05:25;;;;;;;9.95;7.45;;;;;;;;;;6186856;28;20043;-81
2021/06/27 07:08:29;;;;;;;8.75;7.20;;;;;;;;;;6170205;28;20065;-80
2021/06/27 07:11:30;;;;;;;8.27;7.38;;;;;;;;;;6193074;28;20479;-80
2021/06/27 07:14:32;;;;;;;8.30;7.43;;;;;;;;;;6193369;28;20042;-81
2021/06/27 07:17:33;;;;;;;9.45;7.78;;;;;;;;;;6191677;28;20051;-82
2021/06/27 07:20:35;;;;;;;9.52;7.75;;;;;;;;;;6189615;28;20053;-81
2021/06/27 07:23:37;;;;;;;7.90;7.10;;;;;;;;;;6190820;28;20074;-81
2021/06/27 07:26:39;;;;;;;8.65;7.60;;;;;;;;;;6182546;28;20039;-80
2021/06/27 07:29:42;;;;;;;7.93;6.70;;;;;;;;;;6169269;28;20504;-82
2021/06/27 07:32:45;;;;;;;7.63;6.80;;;;;;;;;;6208017;28;20046;-82
2021/06/27 07:35:48;;;;;;;8.77;7.50;;;;;;;;;;6192388;28;20050;-82
2021/06/27 07:38:54;;;;;;;7.55;6.75;;;;;;;;;;6190265;28;20106;-82
2021/06/27 07:41:55;;;;;;;9.85;7.93;;;;;;;;;;6180166;28;20062;-80
2021/06/27 07:44:57;;;;;;;8.50;7.53;;;;;;;;;;6170849;28;20070;-81
2021/06/27 07:47:58;;;;;;;13.05;7.60;;;;;;;;;;6189690;28;20034;-81
2021/06/27 07:51:00;;;;;;;9.23;7.80;;;;;;;;;;6176301;28;20046;-80
2021/06/27 07:54:02;;;;;;;7.35;6.53;;;;;;;;;;6187957;28;20050;-80
2021/06/27 07:57:04;;;;;;;7.72;7.00;;;;;;;;;;6175317;28;20047;-82
2021/06/27 08:00:08;;;;;;;10.50;7.32;;;;;;;;;;6178424;28;20705;-81
2021/06/27 08:03:15;;;;;;;10.23;7.18;;;;;;;;;;6187037;28;20042;-83
2021/06/27 08:06:18;;;;;;;8.07;7.28;;;;;;;;;;6187113;28;20050;-79
2021/06/27 08:09:20;;;;;;;7.60;6.90;;;;;;;;;;6190509;28;20054;-78
2021/06/27 08:12:21;;;;;;;7.50;6.80;;;;;;;;;;6175363;28;20057;-79
2021/06/27 08:15:23;;;;;;;9.40;7.43;;;;;;;;;;6162166;28;20041;-82
2021/06/27 08:18:24;;;;;;;7.40;6.70;;;;;;;;;;6164764;28;20049;-83
2021/06/27 08:21:26;;;;;;;9.50;7.05;;;;;;;;;;6163388;28;20046;-80
2021/06/27 08:24:28;;;;;;;8.38;7.10;;;;;;;;;;6164326;28;20046;-80
2021/06/27 08:27:29;;;;;;;7.60;6.90;;;;;;;;;;6164200;28;20054;-79
2021/06/27 08:30:31;;;;;;;7.53;6.70;;;;;;;;;;6178020;28;20050;-82
2021/06/27 08:33:34;;;;;;;7.88;6.82;;;;;;;;;;6195419;28;20042;-81
2021/06/27 08:36:36;;;;;;;8.27;7.47;;;;;;;;;;6196549;28;20054;-78
2021/06/27 08:39:37;;;;;;;6.83;6.23;;;;;;;;;;6197786;28;20054;-81
2021/06/27 08:42:39;;;;;;;7.55;6.78;;;;;;;;;;6226771;28;20037;-81
2021/06/27 08:45:49;;;;;;;7.82;7.03;;;;;;;;;;6236469;28;20083;-81
2021/06/27 08:48:53;;;;;;;7.93;7.05;;;;;;;;;;6235997;28;20045;-81
2021/06/27 08:51:55;;;;;;;7.63;6.90;;;;;;;;;;6195796;28;20050;-78
2021/06/27 08:54:57;;;;;;;7.40;6.43;;;;;;;;;;6188315;28;20088;-79
2021/06/27 08:57:59;;;;;;;8.33;7.20;;;;;;;;;;6189856;28;20042;-80
2021/06/27 09:01:03;;;;;;;7.50;6.75;;;;;;;;;;6232982;28;21282;-80
2021/06/27 09:04:05;;;;;;;7.03;6.40;;;;;;;;;;6241182;28;20477;-80
2021/06/27 09:07:26;;;;;;;7.38;6.68;;;;;;;;;;6220857;28;20669;-80
2021/06/27 09:10:28;;;;;;;7.50;6.80;;;;;;;;;;6219763;28;20140;-81
2021/06/27 09:13:44;;;;;;;7.00;6.40;;;;;;;;;;6190509;28;20719;-79
2021/06/27 09:17:33;;;;;;;7.47;6.70;;;;;;;;;;6191585;28;20049;-79
2021/06/27 09:20:36;;;;;;;7.47;6.68;;;;;;;;;;6193202;28;20651;-80
2021/06/27 09:23:47;;;;;;;7.43;6.72;;;;;;;;;;6190163;28;20427;-80
2021/06/27 09:26:49;;;;;;;6.57;6.00;;;;;;;;;;6202371;28;20050;-82
2021/06/27 09:29:52;;;;;;;7.27;6.50;;;;;;;;;;6222728;28;20042;-80
2021/06/27 09:32:54;;;;;;;7.60;6.90;;;;;;;;;;6203361;28;20124;-81
2021/06/27 09:36:10;;;;;;;6.83;6.23;;;;;;;;;;6214248;28;20056;-82
2021/06/27 09:39:16;;;;;;;7.22;6.53;;;;;;;;;;6219494;28;20125;-82
2021/06/27 09:42:18;;;;;;;6.68;6.07;;;;;;;;;;6214433;28;20041;-84
2021/06/27 09:45:20;;;;;;;7.30;6.63;;;;;;;;;;6219078;28;20050;-80
2021/06/27 09:48:21;;;;;;;7.17;6.50;;;;;;;;;;6220050;28;20127;-82
2021/06/27 09:51:26;;;;;;;29.63;22.55;;;;;;;;;;6214877;28;20432;-80
2021/06/27 09:54:28;;;;;;;7.05;6.28;;;;;;;;;;6195655;28;20556;-81
2021/06/27 09:57:29;;;;;;;6.60;6.07;;;;;;;;;;6195690;28;20046;-80
2021/06/27 10:00:32;;;;;;;6.10;5.60;;;;;;;;;;6196200;28;20425;-79
2021/06/27 10:03:50;;;;;;;6.50;5.90;;;;;;;;;;6210857;28;20053;-79
2021/06/27 10:06:57;;;;;;;7.03;6.35;;;;;;;;;;6215650;28;20125;-79
2021/06/27 10:09:59;;;;;;;6.30;5.80;;;;;;;;;;6216640;28;20042;-80
2021/06/27 10:13:01;;;;;;;6.00;5.40;;;;;;;;;;6219439;28;20149;-80
2021/06/27 10:16:03;;;;;;;5.50;5.00;;;;;;;;;;6220263;28;20133;-80
2021/06/27 10:19:06;;;;;;;6.10;5.50;;;;;;;;;;6209395;28;20491;-80
2021/06/27 10:22:07;;;;;;;6.25;5.75;;;;;;;;;;6196868;28;20125;-81
2021/06/27 10:25:13;;;;;;;5.63;5.13;;;;;;;;;;6191501;28;20039;-80
2021/06/27 10:28:17;;;;;;;8.38;7.43;;;;;;;;;;6215629;28;20038;-80
2021/06/27 10:31:22;;;;;;;6.07;5.53;;;;;;;;;;6218085;28;20662;-81
2021/06/27 10:34:25;;;;;;;6.07;5.47;;;;;;;;;;6218983;28;20037;-80
2021/06/27 10:37:26;;;;;;;;;;;;;;;;;;6203444;28;20087;-80
2021/06/27 10:40:54;;;;;;;6.50;5.60;;;;;;;;;;6215013;28;19921;-79
2021/06/27 10:43:56;;;;;;;5.93;5.30;;;;;;;;;;6218717;28;20085;-79
2021/06/27 10:46:59;;;;;;;6.40;5.80;;;;;;;;;;6218828;28;20073;-81
2021/06/27 10:50:05;;;;;;;5.95;5.40;;;;;;;;;;6214304;28;20070;-80
2021/06/27 10:53:07;;;;;;;6.07;5.53;;;;;;;;;;6216356;28;20054;-79
2021/06/27 10:56:08;;;;;;;5.93;5.40;;;;;;;;;;6218396;28;20050;-79
2021/06/27 10:59:39;;;;;;;6.10;5.60;;;;;;;;;;6219356;28;20072;-81
2021/06/27 11:02:41;;;;;;;6.25;5.65;;;;;;;;;;6219773;28;20042;-80
2021/06/27 11:05:44;;;;;;;6.20;5.60;;;;;;;;;;6198972;28;20547;-79
2021/06/27 11:09:01;;;;;;;6.13;5.53;;;;;;;;;;6196047;28;20042;-80
2021/06/27 11:12:03;;;;;;;6.20;5.70;;;;;;;;;;6194804;28;20038;-80
2021/06/27 11:15:15;;;;;;;7.50;6.03;;;;;;;;;;6196776;28;20046;-81
2021/06/27 11:18:36;;;;;;;5.95;5.22;;;;;;;;;;6200327;28;20086;-80
2021/06/27 11:21:38;;;;;;;6.60;6.00;;;;;;;;;;6212171;28;20156;-81
2021/06/27 11:24:39;;;;;;;6.03;5.43;;;;;;;;;;6212571;28;20041;-80
2021/06/27 11:27:44;;;;;;;6.15;5.65;;;;;;;;;;6204358;28;20446;-78
2021/06/27 11:30:50;;;;;;;5.95;5.32;;;;;;;;;;6212911;28;20101;-79
2021/06/27 11:34:29;;;;;;;5.88;5.38;;;;;;;;;;6214738;28;20052;-80
2021/06/27 11:37:34;;;;;;;7.05;5.32;;;;;;;;;;6197128;28;20110;-80
2021/06/27 11:40:47;;;;;;;6.18;5.00;;;;;;;;;;6203771;28;20050;-80
2021/06/27 11:44:03;;;;;;;5.60;5.13;;;;;;;;;;6204108;28;20125;-80
2021/06/27 11:47:25;;;;;;;6.32;5.70;;;;;;;;;;6214071;28;20046;-80
2021/06/27 11:50:29;;;;;;;5.55;5.05;;;;;;;;;;6235652;28;20060;-78
2021/06/27 11:53:31;;;;;;;5.72;5.22;;;;;;;;;;6187910;28;20397;-79
2021/06/27 11:56:54;;;;;;;5.95;5.35;;;;;;;;;;6189757;28;20116;-80
2021/06/27 11:59:56;;;;;;;5.40;4.90;;;;;;;;;;6167568;28;20452;-79
2021/06/27 12:03:15;;;;;;;5.30;4.75;;;;;;;;;;6165923;28;20043;-79
2021/06/27 12:06:16;;;;;;;5.10;4.70;;;;;;;;;;6166411;28;20504;-80
2021/06/27 12:09:37;;;;;;;5.57;5.15;;;;;;;;;;6184557;28;20135;-80
2021/06/27 12:12:57;;;;;;;5.00;4.60;;;;;;;;;;6170088;28;20429;-80
2021/06/27 12:16:00;;;;;;;5.20;4.63;;;;;;;;;;6168709;28;20501;-80
2021/06/27 12:19:01;;;;;;;;;;;;;;;;;;6165476;28;20106;-80
2021/06/27 12:22:03;;;;;;;4.88;4.38;;;;;;;;;;6168844;28;19925;-80
2021/06/27 12:25:05;;;;;;;5.28;4.50;;;;;;;;;;6169913;28;20053;-78
2021/06/27 12:28:12;;;;;;;;;;;;;;;;;;6166863;28;20053;-79
2021/06/27 12:31:18;;;;;;;4.65;4.25;;;;;;;;;;6174098;28;20769;-83
2021/06/27 12:34:20;;;;;;;4.78;4.30;;;;;;;;;;6220294;28;20052;-85
2021/06/27 12:37:25;;;;;;;4.50;4.10;;;;;;;;;;6220706;28;20056;-85
2021/06/27 12:40:27;;;;;;;4.45;4.15;;;;;;;;;;6198689;28;20065;-85
2021/06/27 12:43:35;;;;;;;4.50;4.10;;;;;;;;;;6220989;28;20053;-84
2021/06/27 12:46:50;;;;;;;5.45;4.97;;;;;;;;;;6223492;28;20529;-84
2021/06/27 12:49:52;;;;;;;4.53;4.13;;;;;;;;;;6228394;28;20042;-82
2021/06/27 12:53:03;;;;;;;4.70;4.30;;;;;;;;;;6201015;28;20133;-84
2021/06/27 12:56:12;;;;;;;4.25;3.88;;;;;;;;;;6172237;28;20419;-85
2021/06/27 12:59:15;;;;;;;4.10;3.80;;;;;;;;;;6168505;28;20068;-85
2021/06/27 13:02:23;;;;;;;4.72;4.32;;;;;;;;;;6167995;28;20051;-84
2021/06/27 13:05:24;;;;;;;4.45;4.15;;;;;;;;;;6182472;28;20053;-84
2021/06/27 13:08:26;;;;;;;4.50;4.10;;;;;;;;;;6194195;28;20046;-85
2021/06/27 13:11:28;;;;;;;;;;;;;;;;;;6195162;28;20051;-85
2021/06/27 13:14:29;;;;;;;4.45;4.15;;;;;;;;;;6167441;28;20021;-86
2021/06/27 13:17:42;;;;;;;4.82;4.43;;;;;;;;;;6158724;28;20054;-84
2021/06/27 13:20:47;;;;;;;5.15;4.60;;;;;;;;;;6175635;28;20483;-84
2021/06/27 13:24:03;;;;;;;4.78;4.38;;;;;;;;;;6192832;28;20933;-82
2021/06/27 13:27:11;;;;;;;5.15;4.75;;;;;;;;;;6193041;28;20053;-83
2021/06/27 13:30:15;;;;;;;5.20;4.70;;;;;;;;;;6194965;28;20416;-84
2021/06/27 13:33:18;;;;;;;5.00;4.60;;;;;;;;;;6195785;28;20052;-82
2021/06/27 13:36:33;;;;;;;4.93;4.43;;;;;;;;;;6171601;28;20690;-83
2021/06/27 13:39:35;;;;;;;5.00;4.50;;;;;;;;;;6183935;28;20051;-84
2021/06/27 13:42:36;;;;;;;5.28;4.78;;;;;;;;;;6168241;28;20109;-83
2021/06/27 13:45:38;;;;;;;6.70;6.10;;;;;;;;;;6184622;28;20059;-83
2021/06/27 13:48:40;;;;;;;5.20;4.80;;;;;;;;;;6188937;28;20050;-82
2021/06/27 13:51:42;;;;;;;5.88;5.38;;;;;;;;;;6169966;28;20047;-85
2021/06/27 13:54:43;;;;;;;4.85;4.45;;;;;;;;;;6171023;28;20130;-81
2021/06/27 13:57:46;;;;;;;5.55;5.05;;;;;;;;;;6192747;28;20118;-80
2021/06/27 14:00:48;;;;;;;5.10;4.70;;;;;;;;;;6200176;28;20129;-80
2021/06/27 14:03:49;;;;;;;5.15;4.75;;;;;;;;;;6197216;28;20034;-79
2021/06/27 14:06:51;;;;;;;5.38;4.88;;;;;;;;;;6175292;28;20053;-81
2021/06/27 14:09:53;;;;;;;5.28;4.88;;;;;;;;;;6185076;28;20042;-82
2021/06/27 14:12:55;;;;;;;5.00;4.60;;;;;;;;;;6183868;28;20405;-78
2021/06/27 14:15:58;;;;;;;5.47;5.07;;;;;;;;;;6165720;28;20070;-80
2021/06/27 14:19:01;;;;;;;5.25;4.80;;;;;;;;;;6180650;28;20068;-81
2021/06/27 14:22:03;;;;;;;5.50;5.00;;;;;;;;;;6183475;28;20039;-82
2021/06/27 14:25:06;;;;;;;5.63;5.13;;;;;;;;;;6167338;28;20054;-83
2021/06/27 14:28:08;;;;;;;5.35;4.88;;;;;;;;;;6168772;28;20404;-81
2021/06/27 14:31:10;;;;;;;5.75;5.10;;;;;;;;;;6179060;28;20464;-83
2021/06/27 14:34:12;;;;;;;5.43;4.93;;;;;;;;;;6194965;28;20049;-83
2021/06/27 14:37:14;;;;;;;5.40;4.93;;;;;;;;;;6194774;28;20042;-85
2021/06/27 14:40:18;;;;;;;5.07;4.68;;;;;;;;;;6195987;28;20038;-82
2021/06/27 14:43:20;;;;;;;5.35;4.95;;;;;;;;;;6185075;28;20042;-81
2021/06/27 14:46:22;;;;;;;5.32;4.82;;;;;;;;;;6193221;28;20153;-80
2021/06/27 14:49:29;;;;;;;5.88;5.38;;;;;;;;;;6184125;28;20035;-80
2021/06/27 14:52:31;;;;;;;5.18;4.72;;;;;;;;;;6171467;28;20046;-79
2021/06/27 14:55:33;;;;;;;6.00;5.50;;;;;;;;;;6170743;28;20125;-79
2021/06/27 14:58:37;;;;;;;5.78;5.28;;;;;;;;;;6170984;28;20536;-79
2021/06/27 15:01:39;;;;;;;5.50;5.07;;;;;;;;;;6169644;28;20511;-80
2021/06/27 15:04:41;;;;;;;5.90;5.40;;;;;;;;;;6169325;28;20046;-79
2021/06/27 15:07:42;;;;;;;6.15;5.55;;;;;;;;;;6184607;28;20050;-80
2021/06/27 15:10:44;;;;;;;5.18;4.78;;;;;;;;;;6166191;28;20509;-79
2021/06/27 15:13:50;;;;;;;5.07;4.68;;;;;;;;;;6172854;28;20174;-80
2021/06/27 15:16:53;;;;;;;5.32;4.93;;;;;;;;;;6179242;28;20177;-80
2021/06/27 15:19:55;;;;;;;5.10;4.70;;;;;;;;;;6193831;28;20411;-80
2021/06/27 15:22:57;;;;;;;5.63;5.13;;;;;;;;;;6170531;28;20038;-79
2021/06/27 15:25:58;;;;;;;5.70;5.20;;;;;;;;;;6173607;28;20580;-80
2021/06/27 15:29:00;;;;;;;5.30;4.82;;;;;;;;;;6191352;28;20100;-80
2021/06/27 15:32:02;;;;;;;5.57;5.07;;;;;;;;;;6193932;28;20046;-79
2021/06/27 15:35:04;;;;;;;5.25;4.85;;;;;;;;;;6167737;28;20042;-80
2021/06/27 15:38:06;;;;;;;;;;;;;;;;;;6181115;28;20047;-79
2021/06/27 15:41:07;;;;;;;5.43;4.93;;;;;;;;;;6185931;28;19930;-80
2021/06/27 15:44:09;;;;;;;6.77;4.80;;;;;;;;;;6170314;28;20500;-80
2021/06/27 15:47:11;;;;;;;5.15;4.65;;;;;;;;;;6184803;28;20446;-81
2021/06/27 15:50:13;;;;;;;5.18;4.55;;;;;;;;;;6187743;28;200168;-81
2021/06/27 15:53:15;;;;;;;5.28;4.85;;;;;;;;;;6195988;28;20056;-80
2021/06/27 15:56:17;;;;;;;4.95;4.53;;;;;;;;;;6196960;28;20046;-80
2021/06/27 15:59:21;;;;;;;12.45;11.23;;;;;;;;;;6218914;28;20038;-80
2021/06/27 16:02:23;;;;;;;5.03;4.63;;;;;;;;;;6232890;28;20052;-80
2021/06/27 16:05:25;;;;;;;9.75;8.98;;;;;;;;;;6211688;28;20076;-81
2021/06/27 16:08:48;;;;;;;5.15;4.75;;;;;;;;;;6214464;28;20045;-79
2021/06/27 16:11:50;;;;;;;4.93;4.53;;;;;;;;;;6202492;28;20728;-80
2021/06/27 16:14:51;;;;;;;4.90;4.50;;;;;;;;;;6205668;28;20185;-80
2021/06/27 16:17:53;;;;;;;6.67;5.40;;;;;;;;;;6200323;28;20526;-81
2021/06/27 16:20:55;;;;;;;5.43;4.93;;;;;;;;;;6201352;28;20457;-80
2021/06/27 16:23:57;;;;;;;4.68;4.28;;;;;;;;;;6204189;28;20422;-81
2021/06/27 16:27:00;;;;;;;5.00;4.50;;;;;;;;;;6215918;28;20049;-80
2021/06/27 16:30:02;;;;;;;5.18;4.68;;;;;;;;;;6217520;28;20058;-81
2021/06/27 16:33:04;;;;;;;6.40;5.80;;;;;;;;;;6216180;28;20409;-80
2021/06/27 16:36:06;;;;;;;5.30;4.82;;;;;;;;;;6185635;28;20125;-80
2021/06/27 16:39:08;;;;;;;6.40;5.80;;;;;;;;;;6226357;28;20038;-81
2021/06/27 16:42:10;;;;;;;9.65;8.82;;;;;;;;;;6199673;28;20049;-79
2021/06/27 16:45:13;;;;;;;12.68;11.43;;;;;;;;;;6191483;28;20138;-79
2021/06/27 16:48:14;;;;;;;8.30;7.55;;;;;;;;;;6213401;28;20156;-79
2021/06/27 16:51:16;;;;;;;8.43;7.63;;;;;;;;;;6166709;28;20039;-80
2021/06/27 16:54:17;;;;;;;9.77;8.87;;;;;;;;;;6167424;28;20038;-79
2021/06/27 16:57:19;;;;;;;9.60;8.70;;;;;;;;;;6170859;28;20053;-80
2021/06/27 17:00:21;;;;;;;6.97;6.37;;;;;;;;;;6213285;28;20045;-80
2021/06/27 17:03:22;;;;;;;5.47;4.97;;;;;;;;;;6213691;28;20042;-78
2021/06/27 17:06:24;;;;;;;5.30;4.80;;;;;;;;;;6201959;28;20064;-80
2021/06/27 17:09:25;;;;;;;5.23;4.73;;;;;;;;;;6213234;28;20622;-80
2021/06/27 17:12:28;;;;;;;5.30;4.90;;;;;;;;;;6204106;28;20433;-80
2021/06/27 17:15:32;;;;;;;5.22;4.72;;;;;;;;;;6191294;28;20044;-80
2021/06/27 17:18:35;;;;;;;5.82;5.25;;;;;;;;;;6205585;28;20042;-81
2021/06/27 17:21:38;;;;;;;5.28;4.80;;;;;;;;;;6203766;28;20053;-80
2021/06/27 17:24:40;;;;;;;5.25;4.75;;;;;;;;;;6187231;28;20056;-79
2021/06/27 17:27:43;;;;;;;5.38;4.88;;;;;;;;;;6198449;28;20045;-80
2021/06/27 17:30:45;;;;;;;5.28;4.78;;;;;;;;;;6209952;28;20048;-80
2021/06/27 17:33:47;;;;;;;5.63;5.13;;;;;;;;;;6211664;28;20054;-80
2021/06/27 17:36:55;;;;;;;4.93;4.53;;;;;;;;;;6210758;28;20050;-79
2021/06/27 17:39:57;;;;;;;6.35;5.10;;;;;;;;;;6210110;28;20056;-80
2021/06/27 17:46:22;;;;;;;5.60;5.10;;;;;;;;;;6264995;23;20084;-85
2021/06/27 17:49:24;;;;;;;5.00;4.38;;;;;;;;;;6155087;28;20050;-86
2021/06/27 17:52:31;;;;;;;5.67;5.17;;;;;;;;;;6166241;28;20078;-86
2021/06/27 17:55:33;;;;;;;5.47;4.95;;;;;;;;;;6160251;28;20541;-85
2021/06/27 17:58:37;;;;;;;5.90;5.40;;;;;;;;;;6143035;28;20130;-86
2021/06/27 18:01:42;;;;;;;5.65;5.15;;;;;;;;;;6171670;28;20141;-86
2021/06/27 18:04:44;;;;;;;5.65;5.10;;;;;;;;;;6164964;28;20074;-87
2021/06/27 18:07:46;;;;;;;5.53;5.00;;;;;;;;;;6189336;28;20508;-87
2021/06/27 18:10:48;;;;;;;6.45;5.30;;;;;;;;;;6163245;28;20046;-86
2021/06/27 18:13:51;;;;;;;7.10;5.82;;;;;;;;;;6164418;28;20062;-86
2021/06/27 18:16:57;;;;;;;6.00;5.50;;;;;;;;;;6174802;28;20078;-87